createdAt,value
2022-10-26T00:01:07.684Z,100621.75
2022-10-26T00:03:34.038Z,100621.00
2022-10-26T00:06:00.295Z,100618.78
2022-10-26T00:08:26.637Z,100623.94
2022-10-26T00:10:52.882Z,100619.56
2022-10-26T00:13:19.262Z,100630.28
2022-10-26T00:15:45.511Z,100635.75
2022-10-26T00:18:11.796Z,100629.44
2022-10-26T00:20:38.047Z,100629.22
2022-10-26T00:23:04.615Z,100631.25
2022-10-26T00:25:30.877Z,100626.94
2022-10-26T00:27:57.121Z,100631.03
2022-10-26T00:30:23.368Z,100634.31
2022-10-26T00:32:49.641Z,100634.91
2022-10-26T00:35:24.111Z,100635.22
2022-10-26T00:38:01.429Z,100641.75
2022-10-26T00:40:27.685Z,100629.91
2022-10-26T00:42:53.929Z,100638.22
2022-10-26T00:45:20.239Z,100641.06
2022-10-26T00:47:46.511Z,100630.06
2022-10-26T00:50:12.774Z,100635.06
2022-10-26T00:52:39.068Z,100628.03
2022-10-26T00:55:05.323Z,100635.34
2022-10-26T00:57:31.672Z,100630.72
2022-10-26T00:59:58.096Z,100629.50
2022-10-26T01:02:24.348Z,100632.66
2022-10-26T01:04:50.642Z,100633.44
2022-10-26T01:07:16.931Z,100626.91
2022-10-26T01:09:46.874Z,100633.78
2022-10-26T01:12:13.185Z,100628.84
2022-10-26T01:14:39.436Z,100630.91
2022-10-26T01:17:05.698Z,100630.75
2022-10-26T01:19:31.946Z,100630.75
2022-10-26T01:21:58.198Z,100622.78
2022-10-26T01:24:24.460Z,100631.03
2022-10-26T01:29:16.912Z,100626.31
2022-10-26T01:31:43.253Z,100621.72
2022-10-26T01:34:09.521Z,100623.72
2022-10-26T01:36:35.760Z,100620.47
2022-10-26T01:39:02.021Z,100624.53
2022-10-26T01:41:28.332Z,100628.28
2022-10-26T01:43:54.591Z,100635.75
2022-10-26T01:46:20.843Z,100625.69
2022-10-26T01:48:47.191Z,100624.53
2022-10-26T01:51:13.440Z,100622.63
2022-10-26T01:53:39.697Z,100622.53
2022-10-26T01:56:05.958Z,100622.72
2022-10-26T01:58:32.224Z,100623.47
2022-10-26T02:00:58.479Z,100623.13
2022-10-26T02:03:24.778Z,100617.38
2022-10-26T02:05:51.091Z,100629.31
2022-10-26T02:08:17.345Z,100623.09
2022-10-26T02:10:43.607Z,100633.44
2022-10-26T02:13:09.858Z,100618.75
2022-10-26T02:15:36.120Z,100624.94
2022-10-26T02:18:02.371Z,100631.78
2022-10-26T02:20:28.628Z,100626.84
2022-10-26T02:22:54.884Z,100617.19
2022-10-26T02:25:21.340Z,100614.25
2022-10-26T02:27:47.922Z,100612.03
2022-10-26T02:30:14.450Z,100608.88
2022-10-26T02:32:40.712Z,100608.53
2022-10-26T02:35:06.970Z,100608.19
2022-10-26T02:37:33.250Z,100609.16
2022-10-26T02:39:59.530Z,100611.06
2022-10-26T02:42:25.816Z,100604.13
2022-10-26T02:44:52.080Z,100603.84
2022-10-26T02:47:18.340Z,100611.78
2022-10-26T02:49:44.587Z,100608.94
2022-10-26T02:52:10.843Z,100606.44
2022-10-26T02:54:37.097Z,100601.19
2022-10-26T02:57:03.371Z,100605.31
2022-10-26T02:59:29.842Z,100606.22
2022-10-26T03:01:56.158Z,100604.56
2022-10-26T03:04:22.514Z,100602.56
2022-10-26T03:06:48.786Z,100602.41
2022-10-26T03:09:15.043Z,100604.69
2022-10-26T03:11:41.296Z,100601.88
2022-10-26T03:14:07.556Z,100603.66
2022-10-26T03:16:33.949Z,100611.59
2022-10-26T03:19:00.196Z,100599.78
2022-10-26T03:21:26.490Z,100605.47
2022-10-26T03:23:52.752Z,100610.66
2022-10-26T03:26:19.012Z,100608.94
2022-10-26T03:28:45.292Z,100602.13
2022-10-26T03:31:11.539Z,100612.91
2022-10-26T03:36:08.953Z,100602.13
2022-10-26T03:38:35.212Z,100604.91
2022-10-26T03:41:01.467Z,100605.66
2022-10-26T03:43:27.719Z,100605.47
2022-10-26T03:45:53.967Z,100610.16
2022-10-26T03:48:20.245Z,100611.28
2022-10-26T03:50:46.486Z,100612.34
2022-10-26T03:53:12.767Z,100612.34
2022-10-26T03:55:39.018Z,100611.38
2022-10-26T03:58:05.275Z,100620.50
2022-10-26T04:00:31.583Z,100611.44
2022-10-26T04:02:57.844Z,100610.50
2022-10-26T04:05:24.096Z,100610.00
2022-10-26T04:07:50.490Z,100607.25
2022-10-26T04:10:17.072Z,100606.22
2022-10-26T04:12:43.314Z,100608.97
2022-10-26T04:15:10.070Z,100608.88
2022-10-26T04:17:36.331Z,100607.91
2022-10-26T04:20:02.620Z,100601.00
2022-10-26T04:22:28.940Z,100612.94
2022-10-26T04:24:55.188Z,100607.00
2022-10-26T04:27:21.453Z,100617.84
2022-10-26T04:29:47.708Z,100607.94
2022-10-26T04:32:13.953Z,100604.88
2022-10-26T04:34:40.204Z,100602.84
2022-10-26T04:37:06.605Z,100604.16
2022-10-26T04:39:32.855Z,100608.47
2022-10-26T04:41:59.120Z,100607.78
2022-10-26T04:44:25.372Z,100602.44
2022-10-26T04:46:51.649Z,100597.25
2022-10-26T04:49:17.908Z,100587.69
2022-10-26T04:51:44.168Z,100597.25
2022-10-26T04:54:10.490Z,100589.84
2022-10-26T04:56:36.793Z,100594.94
2022-10-26T04:59:03.068Z,100600.78
2022-10-26T05:01:29.458Z,100590.47
2022-10-26T05:03:56.012Z,100600.97
2022-10-26T05:06:22.265Z,100600.91
2022-10-26T05:08:48.552Z,100592.88
2022-10-26T05:11:14.835Z,100592.09
2022-10-26T05:13:41.120Z,100587.16
2022-10-26T05:16:10.443Z,100590.53
2022-10-26T05:18:36.682Z,100586.41
2022-10-26T05:21:02.942Z,100578.22
2022-10-26T05:23:29.180Z,100586.03
2022-10-26T05:25:55.650Z,100586.56
2022-10-26T05:28:21.900Z,100584.81
2022-10-26T05:30:48.227Z,100582.69
2022-10-26T05:33:14.503Z,100581.41
2022-10-26T05:35:40.775Z,100585.63
2022-10-26T05:38:07.022Z,100592.84
2022-10-26T05:40:33.295Z,100590.41
2022-10-26T05:42:59.571Z,100599.75
2022-10-26T05:45:25.819Z,100598.16
2022-10-26T05:47:52.627Z,100600.03
2022-10-26T05:50:19.095Z,100600.78
2022-10-26T05:52:45.398Z,100598.28
2022-10-26T05:55:11.678Z,100610.88
2022-10-26T05:57:37.941Z,100604.16
2022-10-26T06:00:04.183Z,100607.44
2022-10-26T06:02:30.557Z,100606.66
2022-10-26T06:04:56.867Z,100612.78
2022-10-26T06:07:23.111Z,100609.50
2022-10-26T06:09:49.358Z,100611.06
2022-10-26T06:12:18.521Z,100616.81
2022-10-26T06:14:46.084Z,100614.84
2022-10-26T06:17:12.335Z,100617.00
2022-10-26T06:19:38.613Z,100617.72
2022-10-26T06:22:04.880Z,100628.41
2022-10-26T06:24:31.171Z,100630.81
2022-10-26T06:26:57.448Z,100643.75
2022-10-26T06:29:24.726Z,100637.81
2022-10-26T06:31:51.034Z,100637.81
2022-10-26T06:34:17.469Z,100644.19
2022-10-26T06:36:43.783Z,100637.97
2022-10-26T06:39:10.167Z,100648.16
2022-10-26T06:41:36.450Z,100642.97
2022-10-26T06:44:02.883Z,100647.13
2022-10-26T06:46:29.186Z,100641.50
2022-10-26T06:48:55.424Z,100657.09
2022-10-26T06:51:21.740Z,100651.13
2022-10-26T06:53:47.991Z,100652.22
2022-10-26T06:56:14.245Z,100644.41
2022-10-26T06:58:40.490Z,100645.97
2022-10-26T07:01:06.845Z,100639.88
2022-10-26T07:03:33.209Z,100640.00
2022-10-26T07:05:59.621Z,100644.88
2022-10-26T07:08:25.932Z,100647.75
2022-10-26T07:10:52.314Z,100654.03
2022-10-26T07:13:18.639Z,100659.44
2022-10-26T07:15:45.103Z,100659.88
2022-10-26T07:18:11.415Z,100658.72
2022-10-26T07:20:37.831Z,100660.66
2022-10-26T07:23:06.792Z,100647.41
2022-10-26T07:25:33.048Z,100652.66
2022-10-26T07:27:59.433Z,100655.22
2022-10-26T07:30:25.850Z,100653.31
2022-10-26T07:32:52.341Z,100651.56
2022-10-26T07:35:18.694Z,100656.31
2022-10-26T07:37:44.943Z,100664.72
2022-10-26T07:40:11.310Z,100662.13
2022-10-26T07:42:37.639Z,100656.00
2022-10-26T07:45:03.891Z,100657.06
2022-10-26T07:47:30.146Z,100656.72
2022-10-26T07:49:56.455Z,100654.13
2022-10-26T07:52:22.703Z,100651.41
2022-10-26T07:54:48.992Z,100648.88
2022-10-26T07:57:15.244Z,100652.19
2022-10-26T07:59:41.694Z,100662.56
2022-10-26T08:02:08.039Z,100659.00
2022-10-26T08:04:34.376Z,100656.88
2022-10-26T08:07:00.672Z,100661.94
2022-10-26T08:09:27.028Z,100669.13
2022-10-26T08:11:53.288Z,100661.72
2022-10-26T08:14:19.537Z,100661.84
2022-10-26T08:16:45.933Z,100664.09
2022-10-26T08:19:12.230Z,100662.53
2022-10-26T08:21:40.396Z,100652.25
2022-10-26T08:24:06.923Z,100653.59
2022-10-26T08:26:33.220Z,100648.81
2022-10-26T08:28:59.512Z,100660.88
2022-10-26T08:31:26.753Z,100659.56
2022-10-26T08:33:53.004Z,100657.09
2022-10-26T08:36:20.070Z,100657.22
2022-10-26T08:38:46.299Z,100656.56
2022-10-26T08:41:12.606Z,100656.97
2022-10-26T08:43:39.360Z,100651.22
2022-10-26T08:46:05.641Z,100649.38
2022-10-26T08:48:31.917Z,100654.38
2022-10-26T08:50:58.217Z,100651.28
2022-10-26T08:53:24.477Z,100648.59
2022-10-26T08:55:50.735Z,100650.09
2022-10-26T08:58:17.008Z,100638.81
2022-10-26T09:00:43.308Z,100641.63
2022-10-26T09:03:09.583Z,100645.03
2022-10-26T09:05:36.888Z,100644.53
2022-10-26T09:08:03.380Z,100643.84
2022-10-26T09:10:30.513Z,100645.91
2022-10-26T09:12:56.695Z,100645.16
2022-10-26T09:15:22.957Z,100640.41
2022-10-26T09:17:49.464Z,100641.19
2022-10-26T09:20:15.717Z,100649.03
2022-10-26T09:22:42.005Z,100647.50
2022-10-26T09:25:08.257Z,100653.84
2022-10-26T09:27:34.519Z,100642.84
2022-10-26T09:30:00.784Z,100652.84
2022-10-26T09:32:27.049Z,100645.75
2022-10-26T09:34:53.356Z,100647.59
2022-10-26T09:37:19.614Z,100638.50
2022-10-26T09:39:45.880Z,100634.47
2022-10-26T09:42:12.131Z,100635.00
2022-10-26T09:44:38.396Z,100644.06
2022-10-26T09:47:04.814Z,100633.50
2022-10-26T09:49:32.924Z,100642.44
2022-10-26T09:51:59.248Z,100639.72
2022-10-26T09:54:25.518Z,100643.91
2022-10-26T09:56:51.775Z,100640.47
2022-10-26T09:59:18.032Z,100641.47
2022-10-26T10:01:44.323Z,100638.44
2022-10-26T10:04:11.547Z,100640.47
2022-10-26T10:06:37.838Z,100640.72
2022-10-26T10:09:04.175Z,100633.78
2022-10-26T10:11:30.452Z,100626.75
2022-10-26T10:13:56.707Z,100639.31
2022-10-26T10:16:22.959Z,100631.63
2022-10-26T10:18:49.233Z,100635.13
2022-10-26T10:21:15.510Z,100632.41
2022-10-26T10:23:41.774Z,100633.28
2022-10-26T10:26:08.137Z,100634.25
2022-10-26T10:28:34.441Z,100634.91
2022-10-26T10:31:00.706Z,100626.31
2022-10-26T10:33:26.997Z,100632.00
2022-10-26T10:35:53.299Z,100630.75
2022-10-26T10:38:19.559Z,100630.84
2022-10-26T10:40:45.812Z,100629.09
2022-10-26T10:43:12.452Z,100630.59
2022-10-26T10:45:38.707Z,100625.22
2022-10-26T10:48:05.175Z,100619.50
2022-10-26T10:50:31.443Z,100623.66
2022-10-26T10:52:57.999Z,100626.13
2022-10-26T10:55:24.253Z,100617.09
2022-10-26T10:57:50.729Z,100615.13
2022-10-26T11:00:17.125Z,100615.31
2022-10-26T11:02:43.457Z,100606.00
2022-10-26T11:05:11.957Z,100610.56
2022-10-26T11:07:38.213Z,100620.56
2022-10-26T11:10:04.463Z,100610.59
2022-10-26T11:12:30.786Z,100605.91
2022-10-26T11:14:57.092Z,100602.75
2022-10-26T11:17:23.350Z,100603.34
2022-10-26T11:19:49.791Z,100600.75
2022-10-26T11:22:16.096Z,100604.47
2022-10-26T11:24:42.346Z,100603.91
2022-10-26T11:27:08.626Z,100599.31
2022-10-26T11:29:38.190Z,100597.75
2022-10-26T11:32:06.027Z,100595.72
2022-10-26T11:34:32.284Z,100594.88
2022-10-26T11:36:58.549Z,100603.84
2022-10-26T11:39:24.808Z,100595.66
2022-10-26T11:41:51.100Z,100588.84
2022-10-26T11:44:17.372Z,100598.81
2022-10-26T11:46:43.658Z,100597.47
2022-10-26T11:49:09.935Z,100595.59
2022-10-26T11:51:36.223Z,100597.00
2022-10-26T11:54:02.471Z,100597.78
2022-10-26T11:56:28.736Z,100604.09
2022-10-26T11:58:55.257Z,100600.81
2022-10-26T12:01:21.568Z,100606.72
2022-10-26T12:03:47.970Z,100609.56
2022-10-26T12:06:14.231Z,100610.97
2022-10-26T12:08:43.615Z,100609.97
2022-10-26T12:11:09.882Z,100602.56
2022-10-26T12:13:36.153Z,100606.91
2022-10-26T12:16:03.973Z,100607.75
2022-10-26T12:18:50.180Z,100612.63
2022-10-26T12:21:17.139Z,100615.47
2022-10-26T12:23:51.379Z,100613.41
2022-10-26T12:26:18.013Z,100606.66
2022-10-26T12:28:44.318Z,100614.50
2022-10-26T12:31:10.579Z,100614.19
2022-10-26T12:33:36.835Z,100612.00
2022-10-26T12:36:03.151Z,100608.53
2022-10-26T12:38:32.954Z,100617.84
2022-10-26T12:41:00.018Z,100613.13
2022-10-26T12:43:26.274Z,100611.00
2022-10-26T12:45:52.572Z,100605.56
2022-10-26T12:48:27.532Z,100609.16
2022-10-26T12:51:04.662Z,100614.19
2022-10-26T12:53:30.928Z,100614.03
2022-10-26T12:55:57.254Z,100617.19
2022-10-26T12:58:23.537Z,100610.31
2022-10-26T13:00:49.875Z,100606.84
2022-10-26T13:03:16.145Z,100611.19
2022-10-26T13:05:42.412Z,100613.03
2022-10-26T13:08:08.968Z,100610.38
2022-10-26T13:10:35.237Z,100609.53
2022-10-26T13:13:01.554Z,100615.56
2022-10-26T13:15:27.880Z,100618.72
2022-10-26T13:17:54.135Z,100619.00
2022-10-26T13:20:20.391Z,100627.47
2022-10-26T13:22:46.852Z,100618.00
2022-10-26T13:25:13.224Z,100619.31
2022-10-26T13:27:39.515Z,100622.88
2022-10-26T13:30:05.775Z,100616.28
2022-10-26T13:32:32.050Z,100611.25
2022-10-26T13:34:58.316Z,100620.47
2022-10-26T13:37:24.588Z,100623.78
2022-10-26T13:39:55.630Z,100617.53
2022-10-26T13:42:21.919Z,100612.97
2022-10-26T13:44:48.423Z,100619.69
2022-10-26T13:47:14.691Z,100619.00
2022-10-26T13:49:40.957Z,100614.16
2022-10-26T13:52:07.231Z,100623.00
2022-10-26T13:54:33.691Z,100628.13
2022-10-26T13:57:00.167Z,100637.28
2022-10-26T13:59:26.421Z,100631.28
2022-10-26T14:01:52.744Z,100640.13
2022-10-26T14:04:19.055Z,100627.97
2022-10-26T14:06:45.354Z,100640.53
2022-10-26T14:09:11.621Z,100642.13
2022-10-26T14:11:37.884Z,100637.53
2022-10-26T14:14:04.258Z,100645.03
2022-10-26T14:16:30.503Z,100640.44
2022-10-26T14:18:56.776Z,100637.06
2022-10-26T14:21:23.061Z,100642.66
2022-10-26T14:23:49.901Z,100636.81
2022-10-26T14:26:20.137Z,100639.69
2022-10-26T14:28:46.559Z,100641.41
2022-10-26T14:31:16.470Z,100640.16
2022-10-26T14:33:45.720Z,100633.53
2022-10-26T14:36:12.232Z,100637.41
2022-10-26T14:38:38.548Z,100640.31
2022-10-26T14:41:04.830Z,100636.56
2022-10-26T14:43:31.152Z,100654.00
2022-10-26T14:45:57.438Z,100654.00
2022-10-26T14:48:23.919Z,100655.28
2022-10-26T14:50:50.180Z,100665.88
2022-10-26T14:53:16.491Z,100658.00
2022-10-26T14:55:42.773Z,100668.00
2022-10-26T14:58:09.141Z,100660.13
2022-10-26T15:00:35.520Z,100675.69
2022-10-26T15:03:01.832Z,100672.84
2022-10-26T15:05:35.663Z,100670.56
2022-10-26T15:08:03.135Z,100668.38
2022-10-26T15:10:29.345Z,100666.81
2022-10-26T15:12:55.613Z,100669.97
2022-10-26T15:17:48.447Z,100677.09
2022-10-26T15:20:14.860Z,100680.34
2022-10-26T15:22:41.287Z,100674.22
2022-10-26T15:25:07.570Z,100668.94
2022-10-26T15:27:34.712Z,100665.78
2022-10-26T15:30:01.000Z,100672.34
2022-10-26T15:32:27.287Z,100675.91
2022-10-26T15:34:53.536Z,100681.31
2022-10-26T15:37:19.835Z,100681.00
2022-10-26T15:39:46.125Z,100686.84
2022-10-26T15:42:12.374Z,100688.69
2022-10-26T15:44:38.637Z,100675.13
2022-10-26T15:47:08.690Z,100681.38
2022-10-26T15:49:35.183Z,100686.09
2022-10-26T15:52:01.734Z,100683.47
2022-10-26T15:54:28.080Z,100690.97
2022-10-26T15:56:54.508Z,100696.34
2022-10-26T15:59:21.387Z,100698.84
2022-10-26T16:01:47.729Z,100702.44
2022-10-26T16:04:14.203Z,100697.44
2022-10-26T16:06:40.487Z,100705.56
2022-10-26T16:09:06.863Z,100714.94
2022-10-26T16:11:33.202Z,100710.66
2022-10-26T16:14:03.853Z,100713.47
2022-10-26T16:16:30.554Z,100712.03
2022-10-26T16:19:11.850Z,100719.41
2022-10-26T16:21:43.113Z,100723.13
2022-10-26T16:24:09.390Z,100723.13
2022-10-26T16:26:35.714Z,100719.81
2022-10-26T16:29:01.974Z,100725.56
2022-10-26T16:31:28.243Z,100729.50
2022-10-26T16:33:54.501Z,100727.94
2022-10-26T16:36:21.089Z,100731.53
2022-10-26T16:38:47.359Z,100726.22
2022-10-26T16:41:13.839Z,100731.63
2022-10-26T16:43:40.175Z,100731.44
2022-10-26T16:46:06.802Z,100738.97
2022-10-26T16:48:33.088Z,100745.84
2022-10-26T16:50:59.341Z,100744.91
2022-10-26T16:53:25.601Z,100746.75
2022-10-26T16:55:51.855Z,100757.81
2022-10-26T16:58:18.115Z,100758.69
2022-10-26T17:00:44.376Z,100752.56
2022-10-26T17:03:10.665Z,100751.59
2022-10-26T17:05:36.926Z,100753.56
2022-10-26T17:08:03.192Z,100754.69
2022-10-26T17:10:29.477Z,100748.44
2022-10-26T17:12:55.751Z,100758.50
2022-10-26T17:15:25.321Z,100759.91
2022-10-26T17:17:54.772Z,100754.34
2022-10-26T17:20:21.035Z,100759.75
2022-10-26T17:22:47.523Z,100773.81
2022-10-26T17:25:14.014Z,100777.09
2022-10-26T17:27:44.800Z,100773.66
2022-10-26T17:30:13.732Z,100769.63
2022-10-26T17:32:40.000Z,100779.97
2022-10-26T17:35:06.268Z,100785.59
2022-10-26T17:37:32.705Z,100788.69
2022-10-26T17:39:58.978Z,100798.38
2022-10-26T17:42:25.248Z,100817.31
2022-10-26T17:44:51.507Z,100814.59
2022-10-26T17:47:17.761Z,100817.44
2022-10-26T17:49:44.056Z,100816.56
2022-10-26T17:52:11.500Z,100826.91
2022-10-26T17:54:37.762Z,100832.19
2022-10-26T17:57:04.212Z,100825.06
2022-10-26T17:59:30.471Z,100827.91
2022-10-26T18:01:57.108Z,100828.09
2022-10-26T18:04:23.455Z,100834.63
2022-10-26T18:06:49.736Z,100835.47
2022-10-26T18:09:16.038Z,100839.91
2022-10-26T18:11:42.384Z,100842.63
2022-10-26T18:14:08.675Z,100844.13
2022-10-26T18:16:34.947Z,100847.56
2022-10-26T18:19:01.743Z,100859.34
2022-10-26T18:21:28.170Z,100857.13
2022-10-26T18:23:54.489Z,100858.13
2022-10-26T18:26:20.746Z,100860.06
2022-10-26T18:28:47.040Z,100860.19
2022-10-26T18:31:13.291Z,100863.16
2022-10-26T18:33:39.552Z,100860.06
2022-10-26T18:36:05.828Z,100861.06
2022-10-26T18:38:32.126Z,100875.06
2022-10-26T18:40:58.487Z,100877.28
2022-10-26T18:43:24.734Z,100884.28
2022-10-26T18:45:50.995Z,100874.22
2022-10-26T18:48:17.269Z,100888.56
2022-10-26T18:50:43.670Z,100889.06
2022-10-26T18:53:13.288Z,100890.78
2022-10-26T18:55:41.163Z,100886.84
2022-10-26T18:58:10.587Z,100888.69
2022-10-26T19:00:36.907Z,100894.09
2022-10-26T19:03:04.563Z,100896.94
2022-10-26T19:05:30.823Z,100907.00
2022-10-26T19:07:57.075Z,100914.38
2022-10-26T19:10:23.418Z,100912.75
2022-10-26T19:12:50.082Z,100912.63
2022-10-26T19:15:16.746Z,100914.25
2022-10-26T19:17:42.999Z,100924.00
2022-10-26T19:20:12.715Z,100924.97
2022-10-26T19:22:38.968Z,100927.94
2022-10-26T19:25:05.228Z,100934.94
2022-10-26T19:27:31.496Z,100937.88
2022-10-26T19:29:58.000Z,100941.31
2022-10-26T19:32:24.258Z,100950.00
2022-10-26T19:34:50.532Z,100947.19
2022-10-26T19:37:16.943Z,100952.34
2022-10-26T19:39:43.303Z,100951.34
2022-10-26T19:42:09.626Z,100955.34
2022-10-26T19:44:35.879Z,100962.34
2022-10-26T19:47:02.302Z,100972.41
2022-10-26T19:49:28.557Z,100964.66
2022-10-26T19:51:59.484Z,100964.00
2022-10-26T19:54:25.740Z,100973.09
2022-10-26T19:56:53.782Z,100966.94
2022-10-26T19:59:19.955Z,100972.09
2022-10-26T20:01:46.320Z,100975.69
2022-10-26T20:04:13.179Z,100970.31
2022-10-26T20:06:39.433Z,100974.09
2022-10-26T20:09:05.837Z,100983.25
2022-10-26T20:11:32.403Z,100981.53
2022-10-26T20:13:58.881Z,100986.19
2022-10-26T20:16:25.145Z,100993.25
2022-10-26T20:18:51.477Z,100996.16
2022-10-26T20:21:17.847Z,101003.63
2022-10-26T20:23:44.209Z,101001.44
2022-10-26T20:26:16.433Z,101000.38
2022-10-26T20:28:46.321Z,100994.44
2022-10-26T20:31:12.588Z,101001.91
2022-10-26T20:33:38.882Z,101004.50
2022-10-26T20:36:05.132Z,101005.69
2022-10-26T20:38:31.462Z,101008.22
2022-10-26T20:40:57.747Z,101015.00
2022-10-26T20:43:24.004Z,101015.09
2022-10-26T20:45:50.272Z,101014.03
2022-10-26T20:48:16.550Z,101016.47
2022-10-26T20:50:42.840Z,101012.94
2022-10-26T20:53:09.227Z,101013.16
2022-10-26T20:55:35.534Z,101020.28
2022-10-26T20:58:01.791Z,101018.25
2022-10-26T21:00:28.063Z,101022.03
2022-10-26T21:02:54.306Z,101026.13
2022-10-26T21:05:21.138Z,101023.84
2022-10-26T21:07:47.436Z,101034.97
2022-10-26T21:10:13.843Z,101033.88
2022-10-26T21:12:40.966Z,101033.03
2022-10-26T21:15:07.150Z,101037.56
2022-10-26T21:17:34.373Z,101039.50
2022-10-26T21:20:00.625Z,101034.22
2022-10-26T21:22:26.879Z,101039.72
2022-10-26T21:24:53.144Z,101047.03
2022-10-26T21:27:19.408Z,101044.34
2022-10-26T21:29:45.673Z,101041.22
2022-10-26T21:32:11.922Z,101042.28
2022-10-26T21:34:38.181Z,101053.38
2022-10-26T21:37:04.421Z,101047.69
2022-10-26T21:39:30.667Z,101056.00
2022-10-26T21:41:56.920Z,101045.28
2022-10-26T21:44:38.719Z,101053.03
2022-10-26T21:47:08.057Z,101053.72
2022-10-26T21:49:34.504Z,101060.28
2022-10-26T21:52:00.807Z,101052.91
2022-10-26T21:54:27.079Z,101055.59
2022-10-26T21:56:53.329Z,101057.25
2022-10-26T21:59:19.646Z,101053.63
2022-10-26T22:01:45.940Z,101059.34
2022-10-26T22:04:12.395Z,101065.94
2022-10-26T22:06:38.656Z,101072.66
2022-10-26T22:09:04.954Z,101067.41
2022-10-26T22:11:31.647Z,101069.66
2022-10-26T22:13:57.907Z,101070.41
2022-10-26T22:16:24.185Z,101076.75
2022-10-26T22:18:50.443Z,101069.78
2022-10-26T22:21:16.708Z,101076.09
2022-10-26T22:23:42.971Z,101070.28
2022-10-26T22:26:09.215Z,101068.19
2022-10-26T22:28:42.463Z,101070.97
2022-10-26T22:31:09.298Z,101063.72
2022-10-26T22:33:35.536Z,101066.44
2022-10-26T22:36:01.782Z,101060.81
2022-10-26T22:38:28.023Z,101071.78
2022-10-26T22:40:54.855Z,101076.03
2022-10-26T22:43:21.211Z,101077.47
2022-10-26T22:45:47.454Z,101067.44
2022-10-26T22:48:13.714Z,101065.94
2022-10-26T22:50:39.993Z,101080.34
2022-10-26T22:53:06.259Z,101070.72
2022-10-26T22:55:32.515Z,101080.81
2022-10-26T22:57:58.759Z,101082.44
2022-10-26T23:00:26.688Z,101079.66
2022-10-26T23:02:53.167Z,101090.31
2022-10-26T23:05:19.428Z,101092.53
2022-10-26T23:07:45.848Z,101099.94
2022-10-26T23:10:12.116Z,101091.31
2022-10-26T23:12:38.354Z,101099.00
2022-10-26T23:15:06.437Z,101099.13
2022-10-26T23:17:32.605Z,101106.50
2022-10-26T23:19:58.862Z,101112.88
2022-10-26T23:22:25.110Z,101110.94
2022-10-26T23:24:51.371Z,101116.03
2022-10-26T23:27:17.626Z,101113.44
2022-10-26T23:32:15.046Z,101126.75
2022-10-26T23:34:41.371Z,101119.03
2022-10-26T23:37:07.626Z,101122.06
2022-10-26T23:39:33.997Z,101122.09
2022-10-26T23:42:00.250Z,101122.34
2022-10-26T23:44:26.506Z,101126.47
2022-10-26T23:46:52.760Z,101127.25
2022-10-26T23:49:19.034Z,101119.59
2022-10-26T23:51:45.314Z,101126.31
2022-10-26T23:54:11.582Z,101135.44
2022-10-26T23:56:37.831Z,101123.41
2022-10-26T23:59:07.459Z,101131.50
